sensor_id;sensor_type;location;lat;lon;timestamp;P1;durP1;ratioP1;P2;durP2;ratioP2
69856;SDS011;57147;53.582;10.112;2023-06-19T00:02:24;6.00;;;4.35;;
69856;SDS011;57147;53.582;10.112;2023-06-19T00:07:24;6.90;;;4.20;;
69856;SDS011;57147;53.582;10.112;2023-06-19T00:12:25;6.18;;;4.15;;
69856;SDS011;57147;53.582;10.112;2023-06-19T00:17:28;4.75;;;4.30;;
69856;SDS011;57147;53.582;10.112;2023-06-19T00:22:29;5.40;;;4.25;;
69856;SDS011;57147;53.582;10.112;2023-06-19T00:27:29;5.72;;;3.83;;
69856;SDS011;57147;53.582;10.112;2023-06-19T00:32:33;5.03;;;4.15;;
69856;SDS011;57147;53.582;10.112;2023-06-19T00:37:33;6.75;;;4.72;;
69856;SDS011;57147;53.582;10.112;2023-06-19T00:42:34;6.30;;;4.63;;
69856;SDS011;57147;53.582;10.112;2023-06-19T00:47:37;5.40;;;4.50;;
69856;SDS011;57147;53.582;10.112;2023-06-19T00:52:38;5.15;;;4.25;;
69856;SDS011;57147;53.582;10.112;2023-06-19T00:57:39;5.22;;;4.53;;
69856;SDS011;57147;53.582;10.112;2023-06-19T01:02:42;5.63;;;4.20;;
69856;SDS011;57147;53.582;10.112;2023-06-19T01:13:05;5.50;;;4.18;;
69856;SDS011;57147;53.582;10.112;2023-06-19T01:18:13;5.57;;;4.70;;
69856;SDS011;57147;53.582;10.112;2023-06-19T01:23:17;5.43;;;4.55;;
69856;SDS011;57147;53.582;10.112;2023-06-19T01:28:18;4.95;;;4.10;;
69856;SDS011;57147;53.582;10.112;2023-06-19T01:33:19;5.90;;;5.25;;
69856;SDS011;57147;53.582;10.112;2023-06-19T01:38:26;5.90;;;4.90;;
69856;SDS011;57147;53.582;10.112;2023-06-19T01:43:29;5.88;;;4.43;;
69856;SDS011;57147;53.582;10.112;2023-06-19T01:48:30;5.82;;;5.10;;
69856;SDS011;57147;53.582;10.112;2023-06-19T01:53:33;5.13;;;4.63;;
69856;SDS011;57147;53.582;10.112;2023-06-19T01:58:34;7.00;;;5.47;;
69856;SDS011;57147;53.582;10.112;2023-06-19T02:03:35;5.72;;;4.75;;
69856;SDS011;57147;53.582;10.112;2023-06-19T02:08:38;6.10;;;5.35;;
69856;SDS011;57147;53.582;10.112;2023-06-19T02:13:38;5.68;;;4.40;;
69856;SDS011;57147;53.582;10.112;2023-06-19T02:18:39;6.38;;;4.75;;
69856;SDS011;57147;53.582;10.112;2023-06-19T02:23:42;7.82;;;4.60;;
69856;SDS011;57147;53.582;10.112;2023-06-19T02:28:43;7.20;;;5.15;;
69856;SDS011;57147;53.582;10.112;2023-06-19T02:33:43;5.90;;;5.20;;
69856;SDS011;57147;53.582;10.112;2023-06-19T02:38:46;5.78;;;5.03;;
69856;SDS011;57147;53.582;10.112;2023-06-19T02:43:47;6.88;;;6.18;;
69856;SDS011;57147;53.582;10.112;2023-06-19T02:48:48;6.53;;;5.93;;
69856;SDS011;57147;53.582;10.112;2023-06-19T02:53:52;6.65;;;5.97;;
69856;SDS011;57147;53.582;10.112;2023-06-19T02:58:52;6.13;;;5.57;;
69856;SDS011;57147;53.582;10.112;2023-06-19T03:03:53;6.53;;;5.72;;
69856;SDS011;57147;53.582;10.112;2023-06-19T03:08:56;6.60;;;5.70;;
69856;SDS011;57147;53.582;10.112;2023-06-19T03:13:57;7.63;;;5.40;;
69856;SDS011;57147;53.582;10.112;2023-06-19T03:18:57;6.38;;;5.45;;
69856;SDS011;57147;53.582;10.112;2023-06-19T03:24:00;7.03;;;5.70;;
69856;SDS011;57147;53.582;10.112;2023-06-19T03:29:01;6.32;;;5.22;;
69856;SDS011;57147;53.582;10.112;2023-06-19T03:34:02;6.07;;;5.13;;
69856;SDS011;57147;53.582;10.112;2023-06-19T03:39:05;8.98;;;5.93;;
69856;SDS011;57147;53.582;10.112;2023-06-19T03:44:05;7.63;;;5.72;;
69856;SDS011;57147;53.582;10.112;2023-06-19T03:49:06;5.78;;;5.20;;
69856;SDS011;57147;53.582;10.112;2023-06-19T03:54:09;5.95;;;5.35;;
69856;SDS011;57147;53.582;10.112;2023-06-19T03:59:10;6.85;;;6.13;;
69856;SDS011;57147;53.582;10.112;2023-06-19T04:04:11;6.07;;;5.47;;
69856;SDS011;57147;53.582;10.112;2023-06-19T04:09:14;7.68;;;6.38;;
69856;SDS011;57147;53.582;10.112;2023-06-19T04:14:14;8.38;;;6.47;;
69856;SDS011;57147;53.582;10.112;2023-06-19T04:19:15;20.95;;;18.25;;
69856;SDS011;57147;53.582;10.112;2023-06-19T04:24:18;9.20;;;7.30;;
69856;SDS011;57147;53.582;10.112;2023-06-19T04:29:19;8.20;;;6.75;;
69856;SDS011;57147;53.582;10.112;2023-06-19T04:34:19;8.48;;;6.60;;
69856;SDS011;57147;53.582;10.112;2023-06-19T04:39:22;5.82;;;5.22;;
69856;SDS011;57147;53.582;10.112;2023-06-19T04:44:23;7.70;;;6.80;;
69856;SDS011;57147;53.582;10.112;2023-06-19T04:49:24;6.88;;;5.93;;
69856;SDS011;57147;53.582;10.112;2023-06-19T04:54:27;7.30;;;6.55;;
69856;SDS011;57147;53.582;10.112;2023-06-19T04:59:27;7.78;;;6.80;;
69856;SDS011;57147;53.582;10.112;2023-06-19T05:04:28;6.90;;;6.20;;
69856;SDS011;57147;53.582;10.112;2023-06-19T05:09:31;7.50;;;6.78;;
69856;SDS011;57147;53.582;10.112;2023-06-19T05:14:32;8.43;;;7.63;;
69856;SDS011;57147;53.582;10.112;2023-06-19T05:19:32;7.35;;;6.65;;
69856;SDS011;57147;53.582;10.112;2023-06-19T05:24:36;7.32;;;6.50;;
69856;SDS011;57147;53.582;10.112;2023-06-19T05:29:37;8.40;;;6.05;;
69856;SDS011;57147;53.582;10.112;2023-06-19T05:34:38;8.13;;;7.00;;
69856;SDS011;57147;53.582;10.112;2023-06-19T05:39:41;8.52;;;7.45;;
69856;SDS011;57147;53.582;10.112;2023-06-19T05:44:41;16.83;;;14.48;;
69856;SDS011;57147;53.582;10.112;2023-06-19T05:49:42;13.10;;;8.38;;
69856;SDS011;57147;53.582;10.112;2023-06-19T05:54:45;7.97;;;6.30;;
69856;SDS011;57147;53.582;10.112;2023-06-19T05:59:46;8.35;;;7.47;;
69856;SDS011;57147;53.582;10.112;2023-06-19T06:04:47;7.35;;;6.50;;
69856;SDS011;57147;53.582;10.112;2023-06-19T06:09:50;7.97;;;6.55;;
69856;SDS011;57147;53.582;10.112;2023-06-19T06:14:50;9.00;;;7.43;;
69856;SDS011;57147;53.582;10.112;2023-06-19T06:19:51;8.52;;;7.63;;
69856;SDS011;57147;53.582;10.112;2023-06-19T06:24:54;10.27;;;8.30;;
69856;SDS011;57147;53.582;10.112;2023-06-19T06:29:55;10.27;;;7.88;;
69856;SDS011;57147;53.582;10.112;2023-06-19T06:34:55;14.45;;;10.10;;
69856;SDS011;57147;53.582;10.112;2023-06-19T06:39:58;11.25;;;9.40;;
69856;SDS011;57147;53.582;10.112;2023-06-19T06:44:59;11.48;;;9.30;;
69856;SDS011;57147;53.582;10.112;2023-06-19T06:50:00;13.68;;;7.85;;
69856;SDS011;57147;53.582;10.112;2023-06-19T06:55:03;9.15;;;8.18;;
69856;SDS011;57147;53.582;10.112;2023-06-19T07:00:05;10.10;;;8.35;;
69856;SDS011;57147;53.582;10.112;2023-06-19T07:05:07;10.13;;;7.97;;
69856;SDS011;57147;53.582;10.112;2023-06-19T07:10:11;9.52;;;8.50;;
69856;SDS011;57147;53.582;10.112;2023-06-19T07:15:12;13.48;;;10.32;;
69856;SDS011;57147;53.582;10.112;2023-06-19T07:20:13;13.10;;;10.85;;
69856;SDS011;57147;53.582;10.112;2023-06-19T07:25:18;11.05;;;9.20;;
69856;SDS011;57147;53.582;10.112;2023-06-19T07:30:22;10.23;;;9.23;;
69856;SDS011;57147;53.582;10.112;2023-06-19T07:35:22;11.77;;;8.75;;
69856;SDS011;57147;53.582;10.112;2023-06-19T07:45:32;7.97;;;6.65;;
69856;SDS011;57147;53.582;10.112;2023-06-19T07:50:32;10.95;;;9.05;;
69856;SDS011;57147;53.582;10.112;2023-06-19T07:55:35;11.88;;;10.68;;
69856;SDS011;57147;53.582;10.112;2023-06-19T08:00:36;9.30;;;8.40;;
69856;SDS011;57147;53.582;10.112;2023-06-19T08:05:37;9.27;;;8.32;;
69856;SDS011;57147;53.582;10.112;2023-06-19T08:10:40;10.80;;;8.45;;
69856;SDS011;57147;53.582;10.112;2023-06-19T08:15:40;7.90;;;6.80;;
69856;SDS011;57147;53.582;10.112;2023-06-19T08:20:41;9.07;;;8.18;;
69856;SDS011;57147;53.582;10.112;2023-06-19T08:25:44;10.48;;;8.82;;
69856;SDS011;57147;53.582;10.112;2023-06-19T08:30:45;7.47;;;6.68;;
69856;SDS011;57147;53.582;10.112;2023-06-19T08:35:46;8.40;;;7.50;;
69856;SDS011;57147;53.582;10.112;2023-06-19T08:40:49;9.73;;;8.07;;
69856;SDS011;57147;53.582;10.112;2023-06-19T08:45:53;8.85;;;6.18;;
69856;SDS011;57147;53.582;10.112;2023-06-19T08:51:03;8.65;;;6.07;;
69856;SDS011;57147;53.582;10.112;2023-06-19T08:56:06;8.60;;;7.03;;
69856;SDS011;57147;53.582;10.112;2023-06-19T09:01:07;7.43;;;6.72;;
69856;SDS011;57147;53.582;10.112;2023-06-19T09:06:07;7.47;;;6.63;;
69856;SDS011;57147;53.582;10.112;2023-06-19T09:11:11;7.43;;;6.18;;
69856;SDS011;57147;53.582;10.112;2023-06-19T09:16:12;7.47;;;6.78;;
69856;SDS011;57147;53.582;10.112;2023-06-19T09:21:15;9.18;;;8.27;;
69856;SDS011;57147;53.582;10.112;2023-06-19T09:26:19;8.15;;;6.70;;
69856;SDS011;57147;53.582;10.112;2023-06-19T09:31:19;7.45;;;6.28;;
69856;SDS011;57147;53.582;10.112;2023-06-19T09:36:20;7.80;;;6.80;;
69856;SDS011;57147;53.582;10.112;2023-06-19T09:41:23;7.63;;;6.55;;
69856;SDS011;57147;53.582;10.112;2023-06-19T09:46:26;8.70;;;7.70;;
69856;SDS011;57147;53.582;10.112;2023-06-19T09:51:30;8.65;;;7.60;;
69856;SDS011;57147;53.582;10.112;2023-06-19T09:56:38;7.68;;;6.18;;
69856;SDS011;57147;53.582;10.112;2023-06-19T10:01:40;7.75;;;6.53;;
69856;SDS011;57147;53.582;10.112;2023-06-19T10:06:44;8.13;;;6.90;;
69856;SDS011;57147;53.582;10.112;2023-06-19T10:11:49;8.48;;;6.72;;
69856;SDS011;57147;53.582;10.112;2023-06-19T10:16:50;8.27;;;7.45;;
69856;SDS011;57147;53.582;10.112;2023-06-19T10:21:52;8.02;;;7.22;;
69856;SDS011;57147;53.582;10.112;2023-06-19T10:26:59;7.82;;;7.03;;
69856;SDS011;57147;53.582;10.112;2023-06-19T10:32:01;9.02;;;8.13;;
69856;SDS011;57147;53.582;10.112;2023-06-19T10:37:02;8.02;;;7.22;;
69856;SDS011;57147;53.582;10.112;2023-06-19T10:42:08;8.50;;;7.63;;
69856;SDS011;57147;53.582;10.112;2023-06-19T10:47:09;6.68;;;5.82;;
69856;SDS011;57147;53.582;10.112;2023-06-19T10:52:10;6.93;;;6.30;;
69856;SDS011;57147;53.582;10.112;2023-06-19T10:57:13;8.05;;;7.25;;
69856;SDS011;57147;53.582;10.112;2023-06-19T11:02:14;7.75;;;6.35;;
69856;SDS011;57147;53.582;10.112;2023-06-19T11:07:18;7.28;;;6.25;;
69856;SDS011;57147;53.582;10.112;2023-06-19T11:12:21;8.50;;;7.00;;
69856;SDS011;57147;53.582;10.112;2023-06-19T11:17:22;7.95;;;6.60;;
69856;SDS011;57147;53.582;10.112;2023-06-19T11:22:23;6.88;;;6.15;;
69856;SDS011;57147;53.582;10.112;2023-06-19T11:27:41;8.63;;;7.40;;
69856;SDS011;57147;53.582;10.112;2023-06-19T11:32:45;8.20;;;7.38;;
69856;SDS011;57147;53.582;10.112;2023-06-19T11:37:45;7.93;;;7.13;;
69856;SDS011;57147;53.582;10.112;2023-06-19T11:42:51;7.85;;;6.60;;
69856;SDS011;57147;53.582;10.112;2023-06-19T11:47:53;8.48;;;7.57;;
69856;SDS011;57147;53.582;10.112;2023-06-19T11:52:54;8.40;;;7.55;;
69856;SDS011;57147;53.582;10.112;2023-06-19T11:57:57;7.47;;;6.15;;
69856;SDS011;57147;53.582;10.112;2023-06-19T12:02:58;7.20;;;5.30;;
69856;SDS011;57147;53.582;10.112;2023-06-19T12:07:58;7.47;;;6.75;;
69856;SDS011;57147;53.582;10.112;2023-06-19T12:13:02;8.85;;;6.55;;
69856;SDS011;57147;53.582;10.112;2023-06-19T12:18:02;6.75;;;6.05;;
69856;SDS011;57147;53.582;10.112;2023-06-19T12:23:03;9.25;;;6.05;;
69856;SDS011;57147;53.582;10.112;2023-06-19T12:28:06;6.85;;;6.18;;
69856;SDS011;57147;53.582;10.112;2023-06-19T12:33:07;6.60;;;5.65;;
69856;SDS011;57147;53.582;10.112;2023-06-19T12:38:08;7.70;;;5.00;;
69856;SDS011;57147;53.582;10.112;2023-06-19T12:43:11;7.45;;;6.75;;
69856;SDS011;57147;53.582;10.112;2023-06-19T12:48:12;7.28;;;4.60;;
69856;SDS011;57147;53.582;10.112;2023-06-19T12:53:12;5.13;;;4.60;;
69856;SDS011;57147;53.582;10.112;2023-06-19T12:58:16;4.75;;;3.92;;
69856;SDS011;57147;53.582;10.112;2023-06-19T13:03:16;5.80;;;4.38;;
69856;SDS011;57147;53.582;10.112;2023-06-19T13:08:17;4.85;;;4.13;;
69856;SDS011;57147;53.582;10.112;2023-06-19T13:13:20;5.22;;;4.25;;
69856;SDS011;57147;53.582;10.112;2023-06-19T13:18:20;5.03;;;4.13;;
69856;SDS011;57147;53.582;10.112;2023-06-19T13:23:21;7.95;;;3.70;;
69856;SDS011;57147;53.582;10.112;2023-06-19T13:28:24;7.20;;;3.75;;
69856;SDS011;57147;53.582;10.112;2023-06-19T13:33:25;6.57;;;3.45;;
69856;SDS011;57147;53.582;10.112;2023-06-19T13:38:26;4.93;;;3.38;;
69856;SDS011;57147;53.582;10.112;2023-06-19T13:43:31;4.25;;;2.97;;
69856;SDS011;57147;53.582;10.112;2023-06-19T13:48:31;5.97;;;4.43;;
69856;SDS011;57147;53.582;10.112;2023-06-19T13:53:32;5.60;;;4.25;;
69856;SDS011;57147;53.582;10.112;2023-06-19T13:58:35;4.50;;;3.55;;
69856;SDS011;57147;53.582;10.112;2023-06-19T14:03:36;6.88;;;4.00;;
69856;SDS011;57147;53.582;10.112;2023-06-19T14:08:38;7.00;;;4.25;;
69856;SDS011;57147;53.582;10.112;2023-06-19T14:13:41;6.25;;;3.72;;
69856;SDS011;57147;53.582;10.112;2023-06-19T14:18:41;3.97;;;2.83;;
69856;SDS011;57147;53.582;10.112;2023-06-19T14:23:42;4.88;;;2.95;;
69856;SDS011;57147;53.582;10.112;2023-06-19T14:28:45;10.27;;;3.47;;
69856;SDS011;57147;53.582;10.112;2023-06-19T14:33:46;5.35;;;2.85;;
69856;SDS011;57147;53.582;10.112;2023-06-19T14:38:46;3.40;;;2.85;;
69856;SDS011;57147;53.582;10.112;2023-06-19T14:43:50;4.13;;;2.92;;
69856;SDS011;57147;53.582;10.112;2023-06-19T14:48:50;6.32;;;2.67;;
69856;SDS011;57147;53.582;10.112;2023-06-19T14:53:51;6.28;;;3.50;;
69856;SDS011;57147;53.582;10.112;2023-06-19T14:58:54;4.10;;;2.80;;
69856;SDS011;57147;53.582;10.112;2023-06-19T15:03:55;3.47;;;2.85;;
69856;SDS011;57147;53.582;10.112;2023-06-19T15:08:55;4.57;;;2.92;;
69856;SDS011;57147;53.582;10.112;2023-06-19T15:13:59;3.45;;;2.35;;
69856;SDS011;57147;53.582;10.112;2023-06-19T15:19:00;4.85;;;2.72;;
69856;SDS011;57147;53.582;10.112;2023-06-19T15:24:01;4.35;;;3.20;;
69856;SDS011;57147;53.582;10.112;2023-06-19T15:29:06;3.60;;;2.60;;
69856;SDS011;57147;53.582;10.112;2023-06-19T15:34:06;5.40;;;2.80;;
69856;SDS011;57147;53.582;10.112;2023-06-19T15:39:07;4.47;;;3.55;;
69856;SDS011;57147;53.582;10.112;2023-06-19T15:44:10;4.38;;;3.38;;
69856;SDS011;57147;53.582;10.112;2023-06-19T15:49:11;4.78;;;3.17;;
69856;SDS011;57147;53.582;10.112;2023-06-19T15:54:12;4.30;;;3.08;;
69856;SDS011;57147;53.582;10.112;2023-06-19T15:59:15;7.10;;;4.20;;
69856;SDS011;57147;53.582;10.112;2023-06-19T16:04:15;5.25;;;3.63;;
69856;SDS011;57147;53.582;10.112;2023-06-19T16:09:16;4.45;;;3.85;;
69856;SDS011;57147;53.582;10.112;2023-06-19T16:14:19;5.97;;;3.85;;
69856;SDS011;57147;53.582;10.112;2023-06-19T16:19:20;3.72;;;3.42;;
69856;SDS011;57147;53.582;10.112;2023-06-19T16:24:20;5.63;;;3.78;;
69856;SDS011;57147;53.582;10.112;2023-06-19T16:29:26;4.68;;;3.13;;
69856;SDS011;57147;53.582;10.112;2023-06-19T16:34:27;3.95;;;3.55;;
69856;SDS011;57147;53.582;10.112;2023-06-19T16:39:27;3.97;;;3.08;;
69856;SDS011;57147;53.582;10.112;2023-06-19T16:44:31;3.72;;;2.95;;
69856;SDS011;57147;53.582;10.112;2023-06-19T16:49:31;5.50;;;3.15;;
69856;SDS011;57147;53.582;10.112;2023-06-19T16:54:32;4.80;;;2.85;;
69856;SDS011;57147;53.582;10.112;2023-06-19T16:59:35;5.75;;;3.08;;
69856;SDS011;57147;53.582;10.112;2023-06-19T17:04:36;3.58;;;2.88;;
69856;SDS011;57147;53.582;10.112;2023-06-19T17:09:36;3.92;;;3.25;;
69856;SDS011;57147;53.582;10.112;2023-06-19T17:14:39;4.68;;;3.47;;
69856;SDS011;57147;53.582;10.112;2023-06-19T17:19:40;3.65;;;2.83;;
69856;SDS011;57147;53.582;10.112;2023-06-19T17:24:40;4.22;;;2.83;;
69856;SDS011;57147;53.582;10.112;2023-06-19T17:29:44;3.00;;;2.70;;
69856;SDS011;57147;53.582;10.112;2023-06-19T17:34:44;2.60;;;2.20;;
69856;SDS011;57147;53.582;10.112;2023-06-19T17:39:45;4.20;;;2.20;;
69856;SDS011;57147;53.582;10.112;2023-06-19T17:44:48;3.47;;;2.17;;
69856;SDS011;57147;53.582;10.112;2023-06-19T17:49:49;2.60;;;1.92;;
69856;SDS011;57147;53.582;10.112;2023-06-19T17:54:49;4.00;;;2.45;;
69856;SDS011;57147;53.582;10.112;2023-06-19T17:59:52;5.07;;;2.63;;
69856;SDS011;57147;53.582;10.112;2023-06-19T18:04:53;4.18;;;3.22;;
69856;SDS011;57147;53.582;10.112;2023-06-19T18:09:54;4.20;;;2.85;;
69856;SDS011;57147;53.582;10.112;2023-06-19T18:14:57;3.20;;;2.60;;
69856;SDS011;57147;53.582;10.112;2023-06-19T18:19:57;5.40;;;4.20;;
69856;SDS011;57147;53.582;10.112;2023-06-19T18:24:58;4.68;;;4.28;;
69856;SDS011;57147;53.582;10.112;2023-06-19T18:30:01;6.38;;;3.90;;
69856;SDS011;57147;53.582;10.112;2023-06-19T18:40:03;5.30;;;4.35;;
69856;SDS011;57147;53.582;10.112;2023-06-19T18:45:08;5.60;;;4.63;;
69856;SDS011;57147;53.582;10.112;2023-06-19T18:50:09;6.35;;;4.60;;
69856;SDS011;57147;53.582;10.112;2023-06-19T18:55:10;6.60;;;3.25;;
69856;SDS011;57147;53.582;10.112;2023-06-19T19:00:14;5.47;;;4.50;;
69856;SDS011;57147;53.582;10.112;2023-06-19T19:05:15;6.03;;;4.32;;
69856;SDS011;57147;53.582;10.112;2023-06-19T19:10:16;4.80;;;4.20;;
69856;SDS011;57147;53.582;10.112;2023-06-19T19:15:19;5.60;;;5.07;;
69856;SDS011;57147;53.582;10.112;2023-06-19T19:20:20;5.22;;;3.95;;
69856;SDS011;57147;53.582;10.112;2023-06-19T19:25:20;5.15;;;3.97;;
69856;SDS011;57147;53.582;10.112;2023-06-19T19:30:24;5.65;;;4.47;;
69856;SDS011;57147;53.582;10.112;2023-06-19T19:35:24;5.93;;;4.72;;
69856;SDS011;57147;53.582;10.112;2023-06-19T19:40:25;5.28;;;4.13;;
69856;SDS011;57147;53.582;10.112;2023-06-19T19:45:28;5.93;;;4.35;;
69856;SDS011;57147;53.582;10.112;2023-06-19T19:50:29;5.88;;;4.05;;
69856;SDS011;57147;53.582;10.112;2023-06-19T19:55:29;6.65;;;4.45;;
69856;SDS011;57147;53.582;10.112;2023-06-19T20:00:33;6.93;;;5.05;;
69856;SDS011;57147;53.582;10.112;2023-06-19T20:05:33;6.97;;;5.15;;
69856;SDS011;57147;53.582;10.112;2023-06-19T20:10:34;6.28;;;4.45;;
69856;SDS011;57147;53.582;10.112;2023-06-19T20:15:37;7.07;;;5.28;;
69856;SDS011;57147;53.582;10.112;2023-06-19T20:20:38;6.88;;;4.57;;
69856;SDS011;57147;53.582;10.112;2023-06-19T20:25:38;6.78;;;4.30;;
69856;SDS011;57147;53.582;10.112;2023-06-19T20:30:42;8.07;;;4.90;;
69856;SDS011;57147;53.582;10.112;2023-06-19T20:35:43;6.38;;;4.30;;
69856;SDS011;57147;53.582;10.112;2023-06-19T20:40:43;11.70;;;7.32;;
69856;SDS011;57147;53.582;10.112;2023-06-19T20:45:47;8.57;;;4.95;;
69856;SDS011;57147;53.582;10.112;2023-06-19T20:50:47;7.75;;;5.65;;
69856;SDS011;57147;53.582;10.112;2023-06-19T20:55:48;6.13;;;4.60;;
69856;SDS011;57147;53.582;10.112;2023-06-19T21:00:51;8.13;;;5.40;;
69856;SDS011;57147;53.582;10.112;2023-06-19T21:05:52;7.30;;;4.55;;
69856;SDS011;57147;53.582;10.112;2023-06-19T21:10:53;8.85;;;5.55;;
69856;SDS011;57147;53.582;10.112;2023-06-19T21:15:56;8.60;;;5.32;;
69856;SDS011;57147;53.582;10.112;2023-06-19T21:20:56;9.57;;;4.95;;
69856;SDS011;57147;53.582;10.112;2023-06-19T21:25:57;10.20;;;5.82;;
69856;SDS011;57147;53.582;10.112;2023-06-19T21:31:00;8.23;;;4.88;;
69856;SDS011;57147;53.582;10.112;2023-06-19T21:36:01;10.88;;;5.97;;
69856;SDS011;57147;53.582;10.112;2023-06-19T21:41:02;8.40;;;6.13;;
69856;SDS011;57147;53.582;10.112;2023-06-19T21:46:05;7.60;;;5.45;;
69856;SDS011;57147;53.582;10.112;2023-06-19T21:51:06;7.45;;;5.75;;
69856;SDS011;57147;53.582;10.112;2023-06-19T21:56:08;9.80;;;5.35;;
69856;SDS011;57147;53.582;10.112;2023-06-19T22:01:11;10.95;;;7.28;;
69856;SDS011;57147;53.582;10.112;2023-06-19T22:06:11;10.98;;;9.07;;
69856;SDS011;57147;53.582;10.112;2023-06-19T22:11:12;11.93;;;7.78;;
69856;SDS011;57147;53.582;10.112;2023-06-19T22:16:15;9.75;;;7.25;;
69856;SDS011;57147;53.582;10.112;2023-06-19T22:21:16;10.25;;;6.97;;
69856;SDS011;57147;53.582;10.112;2023-06-19T22:26:16;9.88;;;7.35;;
69856;SDS011;57147;53.582;10.112;2023-06-19T22:31:20;10.75;;;8.38;;
69856;SDS011;57147;53.582;10.112;2023-06-19T22:36:20;9.82;;;7.85;;
69856;SDS011;57147;53.582;10.112;2023-06-19T22:41:21;9.05;;;7.13;;
69856;SDS011;57147;53.582;10.112;2023-06-19T22:46:24;8.65;;;5.95;;
69856;SDS011;57147;53.582;10.112;2023-06-19T22:51:25;8.38;;;6.05;;
69856;SDS011;57147;53.582;10.112;2023-06-19T22:56:26;9.30;;;7.07;;
69856;SDS011;57147;53.582;10.112;2023-06-19T23:01:29;8.38;;;6.70;;
69856;SDS011;57147;53.582;10.112;2023-06-19T23:06:30;9.32;;;7.63;;
69856;SDS011;57147;53.582;10.112;2023-06-19T23:11:30;15.73;;;10.40;;
69856;SDS011;57147;53.582;10.112;2023-06-19T23:16:34;13.52;;;9.07;;
69856;SDS011;57147;53.582;10.112;2023-06-19T23:21:34;17.52;;;12.20;;
69856;SDS011;57147;53.582;10.112;2023-06-19T23:26:35;10.38;;;7.57;;
69856;SDS011;57147;53.582;10.112;2023-06-19T23:31:38;11.13;;;8.70;;
69856;SDS011;57147;53.582;10.112;2023-06-19T23:36:39;14.80;;;9.63;;
69856;SDS011;57147;53.582;10.112;2023-06-19T23:41:40;13.30;;;9.77;;
69856;SDS011;57147;53.582;10.112;2023-06-19T23:46:43;14.85;;;10.40;;
69856;SDS011;57147;53.582;10.112;2023-06-19T23:51:43;12.35;;;8.88;;
69856;SDS011;57147;53.582;10.112;2023-06-19T23:56:44;10.25;;;7.63;;
